Time;durP1;ratioP1;P1;durP2;ratioP2;P2;SDS_P1;SDS_P2;PMS_P1;PMS_P2;Temp;Humidity;BMP_temperature;BMP_pressure;BME280_temperature;BME280_humidity;BME280_pressure;Samples;Min_cycle;Max_cycle;Signal;HPM_P1;HPM_P2
2023/12/01 00:46:26;;;;;;;;;;;;;;;;;;;;;
2023/12/01 01:06:20;;;;;;;;;;;;;;;;;;;;;
2023/12/01 01:11:53;;;;;;;;;;;;;;;;;;;;;
2023/12/01 01:16:41;;;;;;;;;;;;;;;;;;;;;
2023/12/01 01:30:44;;;;;;;;;;;;;;;;;;;;;
2023/12/01 01:51:53;;;;;;;125.60;83.20;;;;;;;-2.16;100.00;99201.30;108430;1285;21993;-80
2023/12/01 01:57:04;;;;;;;;;;;;;;;;;;;;;
2023/12/01 02:06:29;;;;;;;;;;;;;;;;;;;;;
2023/12/01 02:15:47;;;;;;;104.00;71.10;;;;;;;-2.71;100.00;99217.00;105737;1316;23108;-76
2023/12/01 02:31:14;;;;;;;;;;;;;;;;;;;;;
2023/12/01 02:36:03;;;;;;;114.10;79.70;;;;;;;-1.55;100.00;99205.39;106031;1260;23953;-79
2023/12/01 02:45:31;;;;;;;135.90;88.50;;;;;;;-2.29;100.00;99233.92;108725;1278;23162;-77
2023/12/01 03:05:40;;;;;;;;;;;;;;;;;;;;;
2023/12/01 03:35:51;;;;;;;152.30;100.60;;;;;;;-2.34;100.00;99188.42;108958;1278;23250;-78
2023/12/01 03:39:30;;;;;;;;;;;;;;;;;;;;;
2023/12/01 04:11:37;;;;;;;;;;;;;;;;;;;;;
2023/12/01 04:17:06;;;;;;;;;;;;;;;;;;;;;
2023/12/01 04:22:28;;;;;;;;;;;;;;;;;;;;;
2023/12/01 04:26:06;;;;;;;;;;;;;;;;;;;;;
2023/12/01 04:30:17;;;;;;;;;;;;;;;;;;;;;
2023/12/01 04:45:08;;;;;;;;;;;;;;;;;;;;;
2023/12/01 04:54:08;;;;;;;;;;;;;;;;;;;;;
2023/12/01 05:09:15;;;;;;;;;;;;;;;;;;;;;
2023/12/01 05:29:44;;;;;;;249.10;161.90;;;;;;;-1.91;100.00;99302.89;110627;1262;549821;-78
2023/12/01 05:33:31;;;;;;;;;;;;;;;-2.14;100.00;99288.35;107538;1244;21948;-79
2023/12/01 05:37:58;;;;;;;235.00;135.30;;;;;;;-2.89;100.00;99289.21;111885;1249;21954;-81
2023/12/01 05:42:20;;;;;;;225.60;137.30;;;;;;;-3.29;100.00;99298.56;111125;1259;22067;-77
2023/12/01 05:47:13;;;;;;;244.60;145.00;;;;;;;-3.55;100.00;99296.64;110127;1267;23651;-79
2023/12/01 05:51:03;;;;;;;253.40;145.00;;;;;;;-3.66;100.00;99289.30;109112;1278;22000;-79
2023/12/01 05:54:18;;;;;;;258.40;145.50;;;;;;;-3.71;100.00;99283.33;108896;1278;22036;-80
2023/12/01 06:08:51;;;;;;;284.80;184.60;;;;;;;-2.05;100.00;99286.54;108106;1292;549718;-81
2023/12/01 06:17:07;;;;;;;261.60;152.80;;;;;;;-2.60;100.00;99313.04;109703;1273;23090;-80
2023/12/01 06:20:58;;;;;;;268.60;151.60;;;;;;;-2.98;100.00;99307.44;109701;1272;21987;-80
2023/12/01 06:24:21;;;;;;;269.00;151.90;;;;;;;-3.21;100.00;99307.92;109359;1276;22060;-80
2023/12/01 06:27:08;;;;;;;268.20;154.10;;;;;;;-3.29;100.00;99315.23;109258;1272;23096;-79
2023/12/01 06:30:37;;;;;;;264.60;151.80;;;;;;;-3.37;100.00;99328.15;108877;1281;21861;-82
2023/12/01 06:33:50;;;;;;;282.70;167.80;;;;;;;-3.33;100.00;99320.00;108177;1289;544252;-82
2023/12/01 06:37:22;;;;;;;389.40;236.10;;;;;;;-3.42;100.00;99326.61;110795;1260;22106;-78
2023/12/01 06:41:21;;;;;;;330.20;194.60;;;;;;;-3.56;100.00;99333.04;110327;1265;21984;-80
2023/12/01 06:45:37;;;;;;;;;;;;;;;;;;;;;
2023/12/01 06:49:29;;;;;;;325.10;190.80;;;;;;;-3.75;100.00;99318.02;104812;1283;22009;-77
2023/12/01 07:08:04;;;;;;;304.60;193.50;;;;;;;-1.57;100.00;99295.92;108364;1283;557622;-80
2023/12/01 07:10:35;;;;;;;288.20;184.50;;;;;;;-1.63;100.00;99312.91;106993;1266;3633892;-80
2023/12/01 07:13:19;;;;;;;289.80;180.40;;;;;;;-2.13;100.00;99313.98;111068;1257;23584;-78
2023/12/01 07:15:54;;;;;;;306.60;184.90;;;;;;;-2.41;100.00;99307.73;111006;1257;21975;-79
2023/12/01 07:18:31;;;;;;;341.40;202.60;;;;;;;-2.65;100.00;99310.67;110646;1258;21978;-80
2023/12/01 07:21:11;;;;;;;342.40;201.40;;;;;;;-2.91;100.00;99305.58;110365;1254;23930;-78
2023/12/01 07:24:08;;;;;;;299.50;182.10;;;;;;;-3.07;100.00;99310.66;109963;1269;22007;-80
2023/12/01 07:26:58;;;;;;;298.90;182.60;;;;;;;-3.19;100.00;99318.65;110257;1265;21985;-80
2023/12/01 07:29:48;;;;;;;364.60;209.40;;;;;;;-3.25;100.00;99318.82;110249;1265;23586;-79
2023/12/01 07:32:23;;;;;;;330.80;193.10;;;;;;;-3.25;100.00;99322.23;109662;1270;22090;-80
2023/12/01 07:35:00;;;;;;;354.80;219.60;;;;;;;-3.25;100.00;99332.09;109969;1270;22035;-80
2023/12/01 07:37:36;;;;;;;381.90;239.00;;;;;;;-3.25;100.00;99332.42;110455;1264;23583;-79
2023/12/01 07:40:21;;;;;;;349.00;219.00;;;;;;;-3.25;100.00;99329.36;110773;1264;21944;-80
2023/12/01 07:43:06;;;;;;;313.40;191.40;;;;;;;-3.22;100.00;99319.67;110934;1249;21961;-78
2023/12/01 07:45:49;;;;;;;299.80;181.80;;;;;;;-3.17;100.00;99321.05;110922;1256;21986;-80
2023/12/01 07:48:39;;;;;;;305.30;192.60;;;;;;;-3.13;100.00;99322.58;110649;1266;21980;-81
2023/12/01 07:51:23;;;;;;;301.00;190.00;;;;;;;-3.09;100.00;99321.21;110741;1261;23588;-79
2023/12/01 07:53:55;;;;;;;303.60;191.20;;;;;;;-3.06;100.00;99316.61;110518;1260;22127;-76
2023/12/01 07:56:37;;;;;;;312.70;198.80;;;;;;;-3.01;100.00;99317.98;110529;1260;21943;-76
2023/12/01 07:59:13;;;;;;;309.30;195.20;;;;;;;-2.98;100.00;99320.71;110179;1267;22748;-79
2023/12/01 08:02:27;;;;;;;339.50;200.40;;;;;;;-2.97;100.00;99315.78;110311;1267;22048;-77
2023/12/01 08:04:58;;;;;;;309.00;188.60;;;;;;;-2.99;100.00;99319.52;110164;1267;22454;-79
2023/12/01 08:08:01;;;;;;;310.80;188.50;;;;;;;-3.04;100.00;99329.55;110567;1261;21973;-76
2023/12/01 08:12:23;;;;;;;;;;;;;;;;;;;;;
2023/12/01 08:16:26;;;;;;;329.70;192.50;;;;;;;-3.30;100.00;99348.59;109113;1276;22461;-77
2023/12/01 08:19:59;;;;;;;312.10;184.10;;;;;;;-3.39;100.00;99355.54;109217;1274;21985;-76
2023/12/01 08:23:15;;;;;;;307.00;182.50;;;;;;;-3.37;100.00;99367.29;109390;1273;22477;-78
2023/12/01 08:26:44;;;;;;;;;;;;;;;;;;;;;
2023/12/01 08:30:40;;;;;;;301.50;177.60;;;;;;;-3.24;100.00;99364.77;108982;1277;23619;-78
2023/12/01 08:34:14;;;;;;;288.00;173.60;;;;;;;-3.11;100.00;99374.65;109217;1274;23850;-78
2023/12/01 08:38:02;;;;;;;285.50;173.50;;;;;;;-3.00;100.00;99377.40;109448;1270;21939;-77
2023/12/01 08:41:16;;;;;;;294.40;177.20;;;;;;;-2.91;100.00;99375.53;108542;1284;21991;-80
2023/12/01 08:43:52;;;;;;;326.10;191.80;;;;;;;-2.81;100.00;99390.02;108603;1281;22151;-77
2023/12/01 08:46:32;;;;;;;333.90;214.10;;;;;;;-2.70;100.00;99393.10;108645;1280;22038;-78
2023/12/01 08:49:30;;;;;;;314.80;195.80;;;;;;;-2.60;100.00;99384.40;109093;1276;22034;-82
2023/12/01 08:52:23;;;;;;;305.40;190.10;;;;;;;-2.51;100.00;99379.98;109327;1276;21988;-80
2023/12/01 08:55:06;;;;;;;315.60;191.00;;;;;;;-2.42;100.00;99384.75;108643;1282;21983;-78
2023/12/01 09:05:39;;;;;;;304.00;190.30;;;;;;;-2.08;100.00;99393.91;107642;1294;22017;-76
2023/12/01 09:08:30;;;;;;;297.90;187.50;;;;;;;-2.00;100.00;99395.26;107585;1294;22934;-78
2023/12/01 09:10:58;;;;;;;333.90;211.10;;;;;;;-1.92;100.00;99394.73;107841;1294;22005;-78
2023/12/01 09:13:25;;;;;;;322.60;210.50;;;;;;;-1.85;100.00;99394.70;107771;1289;23666;-76
2023/12/01 09:15:55;;;;;;;332.10;215.10;;;;;;;-1.79;100.00;99403.40;108077;1289;22941;-76
2023/12/01 09:18:32;;;;;;;350.40;234.50;;;;;;;-1.73;100.00;99415.14;108651;1276;23049;-77
2023/12/01 09:21:52;;;;;;;312.30;201.70;;;;;;;-1.72;100.00;99416.00;108917;1276;23640;-80
2023/12/01 09:24:21;;;;;;;316.50;202.60;;;;;;;-1.70;100.00;99419.74;109050;1276;21997;-77
2023/12/01 09:26:50;;;;;;;308.80;206.50;;;;;;;-1.64;100.00;99429.61;109086;1276;24658;-79
2023/12/01 09:29:19;;;;;;;300.60;195.70;;;;;;;-1.57;100.00;99434.20;109194;1272;23022;-78
2023/12/01 09:31:58;;;;;;;312.30;201.90;;;;;;;-1.49;100.00;99434.34;109241;1263;22180;-79
2023/12/01 09:34:40;;;;;;;311.30;198.60;;;;;;;-1.51;100.00;99412.00;109376;1273;22525;-79
2023/12/01 09:37:15;;;;;;;326.80;204.00;;;;;;;-1.35;100.00;99431.05;108760;1273;21997;-76
2023/12/01 09:39:59;;;;;;;332.90;215.60;;;;;;;-1.39;100.00;99420.48;109083;1273;21980;-78
2023/12/01 09:43:21;;;;;;;;;;;;;;;;;;;;;
2023/12/01 09:46:34;;;;;;;335.60;232.60;;;;;;;-1.21;100.00;99439.52;109131;1276;21971;-76
2023/12/01 09:50:14;;;;;;;338.10;231.70;;;;;;;-1.14;100.00;99437.77;108932;1276;22465;-77
2023/12/01 09:53:16;;;;;;;337.90;225.80;;;;;;;-1.05;100.00;99429.89;109275;1273;24308;-79
2023/12/01 09:56:05;;;;;;;;;;;;;;;;;;;;;
2023/12/01 09:59:16;;;;;;;325.70;216.70;;;;;;;-0.94;100.00;99415.64;109358;1275;21989;-78
2023/12/01 10:06:54;;;;;;;263.00;177.90;;;;;;;-0.78;100.00;99419.65;109766;1271;22001;-76
2023/12/01 10:09:41;;;;;;;238.20;165.70;;;;;;;-0.68;100.00;99421.13;109078;1277;23129;-79
2023/12/01 10:12:36;;;;;;;281.80;187.60;;;;;;;-0.61;100.00;99430.12;108686;1283;23042;-75
2023/12/01 10:15:44;;;;;;;;;;;;;;;;;;;;;
2023/12/01 10:19:48;;;;;;;279.70;181.70;;;;;;;-0.71;100.00;99426.94;109284;1274;22220;-77
2023/12/01 10:23:28;;;;;;;253.00;169.70;;;;;;;-0.77;100.00;99423.92;108617;1285;23064;-75
2023/12/01 10:27:32;;;;;;;;;;;;;;;;;;;;;
2023/12/01 10:31:04;;;;;;;201.50;137.30;;;;;;;-0.75;100.00;99417.40;107976;1289;22022;-76
2023/12/01 10:38:27;;;;;;;250.70;169.10;;;;;;;-0.57;100.00;99406.00;107910;1291;23077;-78
2023/12/01 10:40:59;;;;;;;248.50;158.80;;;;;;;-0.50;100.00;99403.05;107395;1295;22004;-77
2023/12/01 10:44:21;;;;;;;;;;;;;;;;;;;;;
2023/12/01 10:47:21;;;;;;;;;;;;;;;;;;;;;
2023/12/01 10:51:11;;;;;;;;;;;;;;;;;;;;;
2023/12/01 10:57:47;;;;;;;268.90;174.90;;;;;;;-0.28;100.00;99414.31;108116;1291;22006;-78
2023/12/01 11:04:11;;;;;;;230.90;156.10;;;;;;;-0.18;100.00;99415.08;108449;1286;21995;-77
2023/12/01 11:07:24;;;;;;;208.10;146.40;;;;;;;-0.09;100.00;99416.02;108497;1280;22765;-78
2023/12/01 11:11:04;;;;;;;203.70;136.60;;;;;;;-0.07;100.00;99412.92;108917;1279;21986;-76
2023/12/01 11:14:21;;;;;;;156.10;114.40;;;;;;;-0.05;100.00;99417.70;108565;1281;22003;-75
2023/12/01 11:17:04;;;;;;;152.80;106.80;;;;;;;0.01;100.00;99421.74;108714;1277;22205;-78
2023/12/01 11:19:41;;;;;;;166.20;116.00;;;;;;;0.07;100.00;99412.95;109062;1276;23074;-81
2023/12/01 11:22:37;;;;;;;181.70;127.70;;;;;;;0.13;100.00;99407.59;108788;1281;21989;-76
2023/12/01 11:25:43;;;;;;;203.80;134.30;;;;;;;0.15;100.00;99399.54;108716;1274;22221;-77
2023/12/01 11:28:42;;;;;;;147.10;102.80;;;;;;;0.14;100.00;99401.94;108535;1284;23769;-77
2023/12/01 11:31:21;;;;;;;157.00;105.30;;;;;;;0.12;100.00;99403.33;108927;1272;23135;-77
2023/12/01 11:34:07;;;;;;;118.70;83.50;;;;;;;0.15;100.00;99407.91;109391;1272;23669;-75
2023/12/01 11:37:02;;;;;;;104.30;79.50;;;;;;;0.19;100.00;99408.40;109123;1273;23602;-77
2023/12/01 11:39:41;;;;;;;112.20;81.10;;;;;;;0.21;100.00;99417.61;109348;1267;24507;-78
2023/12/01 11:42:34;;;;;;;120.70;88.60;;;;;;;0.22;100.00;99422.39;109213;1272;22816;-76
2023/12/01 11:45:13;;;;;;;116.50;89.50;;;;;;;0.21;100.00;99427.01;108789;1272;21983;-78
2023/12/01 11:47:55;;;;;;;253.00;167.60;;;;;;;0.18;100.00;99422.58;108569;1281;22522;-76
2023/12/01 11:50:32;;;;;;;159.20;120.40;;;;;;;0.12;100.00;99421.29;108644;1281;21996;-75
2023/12/01 11:53:34;;;;;;;119.00;87.60;;;;;;;0.06;100.00;99420.16;108650;1279;22271;-76
2023/12/01 11:57:13;;;;;;;;;;;;;;;;;;;;;
2023/12/01 12:00:53;;;;;;;120.70;87.40;;;;;;;0.02;100.00;99418.14;108965;1277;21987;-80
2023/12/01 12:08:50;;;;;;;124.40;89.60;;;;;;;0.09;100.00;99419.27;107282;1300;22015;-77
2023/12/01 12:11:29;;;;;;;130.10;89.30;;;;;;;0.21;100.00;99422.55;107278;1300;23669;-78
2023/12/01 12:14:37;;;;;;;;;;;;;;;;;;;;;
2023/12/01 12:24:17;;;;;;;104.30;78.40;;;;;;;0.48;100.00;99424.33;106635;1305;22108;-79
2023/12/01 12:27:14;;;;;;;103.90;75.80;;;;;;;0.46;100.00;99425.38;106423;1305;22023;-80
2023/12/01 12:30:37;;;;;;;112.20;76.70;;;;;;;0.41;100.00;99425.60;106629;1305;23628;-81
2023/12/01 12:33:28;;;;;;;113.00;75.30;;;;;;;0.39;100.00;99426.15;107005;1302;23679;-78
2023/12/01 12:36:33;;;;;;;;;;;;;;;;;;;;;
2023/12/01 12:39:16;;;;;;;122.10;81.40;;;;;;;0.29;100.00;99414.10;107582;1291;23271;-79
2023/12/01 12:41:59;;;;;;;127.10;84.30;;;;;;;0.26;100.00;99401.81;107984;1287;23731;-78
2023/12/01 12:45:03;;;;;;;131.70;84.90;;;;;;;0.29;100.00;99400.23;108659;1276;21997;-82
2023/12/01 12:48:15;;;;;;;179.60;121.10;;;;;;;0.48;100.00;99424.15;108959;1276;23727;-77
2023/12/01 12:50:59;;;;;;;198.50;140.90;;;;;;;0.48;100.00;99417.98;108984;1276;21973;-77
2023/12/01 12:53:31;;;;;;;223.60;151.80;;;;;;;0.48;100.00;99410.13;108889;1272;21998;-80
2023/12/01 12:56:17;;;;;;;221.90;155.30;;;;;;;0.45;100.00;99405.02;108983;1277;22419;-81
2023/12/01 12:59:09;;;;;;;206.60;149.10;;;;;;;0.41;100.00;99393.60;109172;1276;21979;-82
2023/12/01 13:01:48;;;;;;;;;;;;;;;0.38;100.00;99389.34;110682;1260;22573;-82
2023/12/01 13:04:27;;;;;;;191.40;128.50;;;;;;;0.32;100.00;99389.92;110503;1267;21984;-78
2023/12/01 13:07:23;;;;;;;195.90;135.20;;;;;;;0.33;100.00;99387.52;109542;1272;21983;-82
2023/12/01 13:10:05;;;;;;;208.90;138.10;;;;;;;0.39;100.00;99386.43;109806;1271;21968;-79
2023/12/01 13:12:49;;;;;;;153.70;108.40;;;;;;;0.42;100.00;99395.13;109980;1271;22043;-82
2023/12/01 13:16:05;;;;;;;139.70;95.70;;;;;;;0.30;100.00;99382.94;108703;1281;23628;-79
2023/12/01 13:19:37;;;;;;;111.10;76.20;;;;;;;0.36;100.00;99400.48;109058;1279;21988;-79
2023/12/01 13:26:16;;;;;;;128.10;90.30;;;;;;;0.23;100.00;99402.86;109216;1280;22002;-82
2023/12/01 13:29:05;;;;;;;152.20;103.30;;;;;;;0.16;100.00;99412.35;109138;1280;22293;-80
2023/12/01 13:38:01;;;;;;;157.50;112.30;;;;;;;-0.08;100.00;99420.29;109523;1276;22006;-82
2023/12/01 13:46:18;;;;;;;161.00;115.60;;;;;;;-0.20;100.00;99420.22;108803;1287;22084;-78
2023/12/01 13:50:39;;;;;;;162.40;114.70;;;;;;;-0.23;100.00;99429.33;108575;1288;22111;-78
2023/12/01 13:54:28;;;;;;;168.00;115.30;;;;;;;-0.27;100.00;99435.50;108447;1288;22195;-79
2023/12/01 13:57:50;;;;;;;177.60;121.90;;;;;;;-0.27;100.00;99444.56;108152;1288;22981;-79
2023/12/01 14:01:06;;;;;;;153.90;114.30;;;;;;;-0.27;100.00;99447.30;108534;1288;23575;-79
2023/12/01 14:04:39;;;;;;;;;;;;;;;;;;;;;
2023/12/01 14:11:49;;;;;;;151.60;117.60;;;;;;;-0.38;100.00;99446.37;103751;1266;21867;-80
2023/12/01 14:15:23;;;;;;;159.20;116.80;;;;;;;-0.43;100.00;99456.99;111148;1264;21846;-80
2023/12/01 14:18:45;;;;;;;173.30;123.40;;;;;;;-0.53;100.00;99458.09;110924;1274;21819;-82
2023/12/01 14:22:06;;;;;;;178.00;128.40;;;;;;;-0.57;100.00;99452.30;110810;1274;21802;-79
2023/12/01 14:25:15;;;;;;;179.60;131.00;;;;;;;-0.60;100.00;99451.30;110744;1274;22228;-80
2023/12/01 14:28:59;;;;;;;180.00;133.30;;;;;;;-0.61;100.00;99462.08;110871;1274;21928;-80
2023/12/01 14:32:43;;;;;;;194.50;139.60;;;;;;;-0.66;100.00;99463.82;110883;1274;21851;-78
2023/12/01 14:35:59;;;;;;;200.90;146.60;;;;;;;-0.64;100.00;99467.23;110915;1274;22417;-81
2023/12/01 14:38:41;;;;;;;210.00;152.60;;;;;;;-0.64;100.00;99467.74;110884;1274;21851;-80
2023/12/01 14:41:31;;;;;;;218.40;152.00;;;;;;;-0.61;100.00;99459.35;110630;1275;21909;-82
2023/12/01 14:44:30;;;;;;;211.30;155.70;;;;;;;-0.58;100.00;99455.22;110341;1277;21842;-79
2023/12/01 14:51:17;;;;;;;212.40;152.40;;;;;;;-0.65;100.00;99444.00;111052;1272;21920;-79
2023/12/01 14:54:16;;;;;;;224.70;162.20;;;;;;;-0.64;100.00;99449.96;110920;1272;22317;-77
2023/12/01 14:57:17;;;;;;;228.50;167.10;;;;;;;-0.60;100.00;99458.14;110979;1272;21912;-81
2023/12/01 15:00:53;;;;;;;224.20;165.20;;;;;;;-0.56;100.00;99463.42;110930;1272;21824;-78
2023/12/01 15:03:20;;;;;;;215.50;157.30;;;;;;;-0.55;100.00;99464.27;110509;1278;21834;-80
2023/12/01 15:06:20;;;;;;;222.60;160.40;;;;;;;-0.54;100.00;99465.96;110534;1278;21863;-76
2023/12/01 15:09:18;;;;;;;218.50;163.10;;;;;;;-0.53;100.00;99465.80;110186;1283;21843;-79
2023/12/01 15:12:33;;;;;;;221.50;164.70;;;;;;;-0.52;100.00;99461.34;110136;1279;21950;-79
2023/12/01 15:15:19;;;;;;;227.60;167.70;;;;;;;-0.55;100.00;99465.80;110423;1279;22582;-76
2023/12/01 15:18:08;;;;;;;218.00;165.80;;;;;;;-0.59;100.00;99475.40;110465;1279;22232;-81
2023/12/01 15:21:03;;;;;;;195.30;143.40;;;;;;;-0.59;100.00;99480.70;110424;1273;22366;-81
2023/12/01 15:23:48;;;;;;;179.80;140.50;;;;;;;-0.60;100.00;99478.48;110913;1273;21879;-86
2023/12/01 15:26:29;;;;;;;191.50;143.50;;;;;;;-0.60;100.00;99481.57;110853;1273;21834;-81
2023/12/01 15:29:38;;;;;;;206.70;146.20;;;;;;;-0.61;100.00;99485.66;110779;1274;21816;-83
2023/12/01 15:32:19;;;;;;;222.40;155.90;;;;;;;-0.61;100.00;99498.99;110476;1277;21894;-83
2023/12/01 15:34:56;;;;;;;245.30;168.50;;;;;;;-0.62;100.00;99510.28;110165;1282;21835;-79
2023/12/01 15:37:52;;;;;;;213.50;149.10;;;;;;;-0.63;100.00;99510.11;109850;1288;21862;-76
2023/12/01 15:40:55;;;;;;;;;;;;;;;;;;;;;
2023/12/01 15:43:52;;;;;;;211.40;153.90;;;;;;;-0.61;100.00;99489.59;109754;1292;21936;-79
2023/12/01 15:46:40;;;;;;;225.60;160.90;;;;;;;-0.61;100.00;99488.73;109784;1288;21833;-82
2023/12/01 15:49:32;;;;;;;258.10;179.60;;;;;;;-0.62;100.00;99487.21;109758;1289;21949;-85
2023/12/01 15:52:38;;;;;;;247.00;170.80;;;;;;;-0.63;100.00;99474.91;109930;1289;21695;-80
2023/12/01 15:55:22;;;;;;;246.70;161.80;;;;;;;-0.64;100.00;99465.01;109930;1289;21784;-82
2023/12/01 15:58:09;;;;;;;233.80;163.00;;;;;;;-0.68;100.00;99469.98;109910;1289;21861;-80
2023/12/01 16:00:50;;;;;;;235.50;163.40;;;;;;;-0.72;100.00;99479.40;110131;1279;21800;-81
2023/12/01 16:03:40;;;;;;;244.90;169.60;;;;;;;-0.75;100.00;99484.72;110635;1277;21823;-79
2023/12/01 16:06:17;;;;;;;249.10;172.40;;;;;;;-0.76;100.00;99497.05;110612;1277;21826;-80
2023/12/01 16:08:49;;;;;;;236.30;166.40;;;;;;;-0.77;100.00;99502.34;110563;1277;21854;-81
2023/12/01 16:11:26;;;;;;;222.70;162.00;;;;;;;-0.77;100.00;99498.74;110639;1278;21822;-81
2023/12/01 16:14:00;;;;;;;221.90;158.00;;;;;;;-0.78;100.00;99505.74;110319;1276;21829;-79
2023/12/01 16:16:32;;;;;;;220.30;154.40;;;;;;;-0.77;100.00;99512.93;110586;1277;21852;-81
2023/12/01 16:19:24;;;;;;;212.40;148.60;;;;;;;-0.77;100.00;99513.44;110732;1272;21923;-86
2023/12/01 16:22:09;;;;;;;217.70;151.30;;;;;;;-0.74;100.00;99511.20;111099;1267;22218;-84
2023/12/01 16:25:02;;;;;;;218.00;149.90;;;;;;;-0.75;100.00;99516.15;111098;1268;21805;-84
2023/12/01 16:27:46;;;;;;;230.90;164.90;;;;;;;-0.77;100.00;99512.92;111168;1268;22185;-82
2023/12/01 16:30:28;;;;;;;541.40;384.80;;;;;;;-0.76;100.00;99514.98;111294;1268;21850;-82
2023/12/01 16:33:09;;;;;;;559.10;394.60;;;;;;;-0.76;100.00;99519.58;110689;1274;21871;-77
2023/12/01 16:35:39;;;;;;;368.90;259.30;;;;;;;-0.76;100.00;99515.82;110701;1274;21833;-78
2023/12/01 16:38:19;;;;;;;357.20;252.60;;;;;;;-0.75;100.00;99524.20;110578;1278;21831;-78
2023/12/01 16:40:57;;;;;;;346.20;241.60;;;;;;;-0.75;100.00;99526.08;110448;1278;21896;-80
2023/12/01 16:43:36;;;;;;;341.30;232.30;;;;;;;-0.75;100.00;99515.65;110260;1279;22312;-84
2023/12/01 16:46:26;;;;;;;278.90;189.60;;;;;;;-0.74;100.00;99515.13;110192;1279;21866;-79
2023/12/01 16:49:09;;;;;;;274.20;181.50;;;;;;;-0.75;100.00;99518.04;110487;1279;22345;-82
2023/12/01 16:52:21;;;;;;;234.40;159.30;;;;;;;-0.81;100.00;99521.14;110972;1273;21843;-82
2023/12/01 16:55:20;;;;;;;223.40;146.60;;;;;;;-0.85;100.00;99512.11;110854;1268;22356;-77
2023/12/01 16:58:11;;;;;;;221.30;146.20;;;;;;;-0.89;100.00;99521.34;111647;1266;22300;-79
2023/12/01 17:00:52;;;;;;;221.10;145.80;;;;;;;-0.92;100.00;99519.14;111267;1268;21809;-79
2023/12/01 17:03:38;;;;;;;230.10;151.70;;;;;;;-0.92;100.00;99505.14;111668;1268;21835;-79
2023/12/01 17:07:03;;;;;;;230.60;147.10;;;;;;;-0.94;100.00;99497.65;111439;1268;21918;-78
2023/12/01 17:09:50;;;;;;;241.90;153.70;;;;;;;-0.94;100.00;99496.44;111556;1268;21906;-78
2023/12/01 17:12:26;;;;;;;233.40;149.80;;;;;;;-0.93;100.00;99497.63;111430;1268;21909;-79
2023/12/01 17:15:21;;;;;;;247.70;155.30;;;;;;;-0.92;100.00;99508.20;110641;1274;21766;-80
2023/12/01 17:18:37;;;;;;;229.70;153.00;;;;;;;-0.93;100.00;99510.08;110725;1275;22332;-80
2023/12/01 17:21:22;;;;;;;252.40;162.00;;;;;;;-0.94;100.00;99499.17;110765;1275;21965;-80
2023/12/01 17:24:01;;;;;;;260.20;165.20;;;;;;;-0.91;100.00;99509.06;110826;1273;21823;-77
2023/12/01 17:26:40;;;;;;;256.60;161.30;;;;;;;-0.90;100.00;99509.23;110682;1275;21894;-77
2023/12/01 17:29:17;;;;;;;283.60;177.40;;;;;;;-0.90;100.00;99511.27;110665;1275;22110;-77
2023/12/01 17:31:47;;;;;;;312.60;192.70;;;;;;;-0.89;100.00;99513.66;110666;1275;21810;-77
2023/12/01 17:34:21;;;;;;;259.80;171.40;;;;;;;-0.87;100.00;99540.98;110754;1275;21914;-77
2023/12/01 17:36:59;;;;;;;250.30;163.70;;;;;;;-0.85;100.00;99546.62;110666;1275;21944;-78
2023/12/01 17:39:34;;;;;;;230.10;161.60;;;;;;;-0.86;100.00;99542.86;111036;1268;21994;-79
2023/12/01 17:42:09;;;;;;;349.90;195.10;;;;;;;-0.87;100.00;99538.93;111211;1268;21858;-82
2023/12/01 17:44:44;;;;;;;322.70;188.60;;;;;;;-0.87;100.00;99533.13;110790;1274;21785;-79
2023/12/01 17:47:15;;;;;;;297.10;174.20;;;;;;;-0.85;100.00;99522.88;110595;1277;21807;-81
2023/12/01 17:49:54;;;;;;;256.90;160.90;;;;;;;-0.84;100.00;99530.39;110509;1277;21822;-86
2023/12/01 17:52:24;;;;;;;233.70;152.90;;;;;;;-0.84;100.00;99526.28;110605;1276;21933;-79
2023/12/01 17:54:57;;;;;;;243.20;157.90;;;;;;;-0.84;100.00;99526.96;110091;1282;21845;-82
2023/12/01 17:57:35;;;;;;;226.70;151.30;;;;;;;-0.85;100.00;99538.77;110099;1282;22044;-83
2023/12/01 18:00:09;;;;;;;241.40;164.70;;;;;;;-0.89;100.00;99546.45;110133;1281;21818;-79
2023/12/01 18:02:46;;;;;;;274.20;182.70;;;;;;;-0.91;100.00;99540.14;110512;1278;21785;-83
2023/12/01 18:05:38;;;;;;;312.50;204.50;;;;;;;-0.93;100.00;99531.45;110938;1272;21862;-81
2023/12/01 18:08:12;;;;;;;283.50;186.90;;;;;;;-0.96;100.00;99532.13;110600;1277;21831;-74
2023/12/01 18:10:47;;;;;;;276.00;183.70;;;;;;;-0.98;100.00;99536.41;110121;1283;21813;-77
2023/12/01 18:13:26;;;;;;;270.60;179.30;;;;;;;-1.00;100.00;99527.73;110063;1284;21839;-77
2023/12/01 18:16:06;;;;;;;290.50;186.70;;;;;;;-1.01;100.00;99509.45;110055;1284;21842;-78
2023/12/01 18:19:15;;;;;;;319.10;197.30;;;;;;;-1.04;100.00;99501.94;110103;1281;21845;-76
2023/12/01 18:22:55;;;;;;;;;;;;;;;;;;;;;
2023/12/01 18:25:41;;;;;;;359.60;220.60;;;;;;;-1.11;100.00;99515.46;110304;1275;21924;-75
2023/12/01 18:28:27;;;;;;;358.30;218.00;;;;;;;-1.12;100.00;99512.58;110718;1272;21832;-80
2023/12/01 18:31:05;;;;;;;357.80;220.90;;;;;;;-1.10;100.00;99505.05;110868;1273;21906;-83
2023/12/01 18:33:42;;;;;;;336.70;206.80;;;;;;;-1.07;100.00;99499.91;110894;1272;21822;-81
2023/12/01 18:36:20;;;;;;;346.50;218.10;;;;;;;-1.08;100.00;99503.84;110907;1273;22291;-76
2023/12/01 18:39:19;;;;;;;338.60;212.90;;;;;;;-1.08;100.00;99502.46;110919;1266;21904;-76
2023/12/01 18:42:06;;;;;;;325.70;204.30;;;;;;;-1.08;100.00;99509.48;110909;1272;21812;-76
2023/12/01 18:44:37;;;;;;;323.30;195.60;;;;;;;-1.07;100.00;99519.55;110961;1272;21821;-78
2023/12/01 18:47:52;;;;;;;339.00;195.60;;;;;;;-1.08;100.00;99520.41;111717;1268;21797;-79
2023/12/01 18:50:33;;;;;;;312.90;185.70;;;;;;;-1.06;100.00;99529.11;110940;1273;21860;-76
2023/12/01 18:53:23;;;;;;;302.10;178.60;;;;;;;-1.10;100.00;99519.73;110918;1270;21841;-78
2023/12/01 18:56:09;;;;;;;228.90;149.60;;;;;;;-1.09;100.00;99502.99;111095;1271;21938;-79
2023/12/01 18:58:59;;;;;;;217.40;143.10;;;;;;;-1.09;100.00;99496.66;111003;1273;22283;-77
2023/12/01 19:01:45;;;;;;;244.10;155.30;;;;;;;-1.08;100.00;99497.02;111009;1273;21863;-80
2023/12/01 19:04:41;;;;;;;232.50;145.40;;;;;;;-1.10;100.00;99513.24;110911;1272;21769;-80
2023/12/01 19:07:26;;;;;;;206.40;133.10;;;;;;;-1.14;100.00;99520.09;110966;1272;21811;-79
2023/12/01 19:10:04;;;;;;;206.80;134.50;;;;;;;-1.19;100.00;99525.56;108237;1272;3497853;-77
2023/12/01 19:13:22;;;;;;;220.80;138.70;;;;;;;-1.20;100.00;99523.69;110629;1276;21966;-76
2023/12/01 19:16:13;;;;;;;;;;;;;;;;;;;;;
2023/12/01 19:19:41;;;;;;;231.40;148.90;;;;;;;-1.06;100.00;99520.56;110193;1281;21828;-76
2023/12/01 19:22:51;;;;;;;227.20;142.50;;;;;;;-1.02;100.00;99510.13;109997;1284;21887;-75
2023/12/01 19:25:34;;;;;;;232.50;138.60;;;;;;;-0.98;100.00;99506.70;109952;1286;21848;-75
2023/12/01 19:28:51;;;;;;;242.60;155.00;;;;;;;-0.94;100.00;99521.36;109996;1285;22251;-74
2023/12/01 19:32:09;;;;;;;;;;;;;;;;;;;;;
2023/12/01 19:35:08;;;;;;;234.70;147.90;;;;;;;-0.98;100.00;99541.36;110324;1281;21910;-75
2023/12/01 19:38:14;;;;;;;244.90;152.20;;;;;;;-0.99;100.00;99534.55;110570;1276;22335;-75
2023/12/01 19:40:51;;;;;;;236.70;149.20;;;;;;;-1.01;100.00;99521.40;111187;1268;21885;-74
2023/12/01 19:43:33;;;;;;;215.30;140.80;;;;;;;-1.03;100.00;99513.05;111344;1268;21866;-73
2023/12/01 19:46:13;;;;;;;223.60;143.40;;;;;;;-1.07;100.00;99511.16;110927;1272;21858;-74
2023/12/01 19:48:51;;;;;;;221.60;138.70;;;;;;;-1.06;100.00;99516.48;110809;1272;21858;-73
2023/12/01 19:51:50;;;;;;;246.00;152.80;;;;;;;-1.10;100.00;99511.19;110396;1278;21920;-73
2023/12/01 19:54:43;;;;;;;231.50;152.80;;;;;;;-1.13;100.00;99524.86;110313;1276;22280;-73